createdAt,value
2023-02-11T00:01:07.164Z,7.40
2023-02-11T00:03:34.441Z,6.97
2023-02-11T00:06:04.403Z,6.50
2023-02-11T00:08:31.985Z,6.68
2023-02-11T00:10:59.212Z,7.40
2023-02-11T00:13:26.848Z,7.20
2023-02-11T00:15:55.906Z,7.10
2023-02-11T00:18:23.436Z,6.72
2023-02-11T00:20:50.598Z,7.45
2023-02-11T00:23:17.781Z,7.25
2023-02-11T00:25:45.955Z,6.47
2023-02-11T00:28:13.126Z,6.70
2023-02-11T00:30:40.627Z,7.13
2023-02-11T00:33:09.158Z,6.93
2023-02-11T00:35:37.788Z,6.90
2023-02-11T00:38:04.876Z,7.30
2023-02-11T00:40:32.032Z,6.57
2023-02-11T00:42:59.290Z,7.40
2023-02-11T00:45:26.405Z,7.07
2023-02-11T00:47:53.505Z,7.35
2023-02-11T00:50:22.120Z,7.15
2023-02-11T00:52:49.498Z,7.13
2023-02-11T00:55:16.658Z,6.95
2023-02-11T00:57:43.850Z,6.80
2023-02-11T01:00:14.994Z,7.20
2023-02-11T01:02:42.082Z,7.43
2023-02-11T01:05:09.278Z,7.10
2023-02-11T01:07:37.804Z,7.10
2023-02-11T01:10:05.407Z,7.18
2023-02-11T01:12:35.254Z,6.70
2023-02-11T01:15:03.847Z,7.55
2023-02-11T01:17:30.966Z,6.72
2023-02-11T01:19:58.216Z,6.70
2023-02-11T01:22:25.328Z,6.85
2023-02-11T01:24:53.796Z,7.15
2023-02-11T01:27:20.918Z,7.53
2023-02-11T01:29:48.042Z,7.18
2023-02-11T01:32:15.157Z,6.85
2023-02-11T01:34:42.283Z,7.20
2023-02-11T01:37:09.406Z,6.50
2023-02-11T01:39:36.526Z,7.03
2023-02-11T01:42:05.778Z,7.13
2023-02-11T01:44:36.680Z,6.95
2023-02-11T01:47:04.130Z,7.05
2023-02-11T01:49:34.406Z,6.95
2023-02-11T01:52:05.696Z,6.97
2023-02-11T01:54:36.269Z,6.78
2023-02-11T01:57:06.371Z,6.15
2023-02-11T01:59:39.049Z,7.22
2023-02-11T02:02:10.142Z,7.38
2023-02-11T02:04:44.028Z,6.93
2023-02-11T02:07:17.142Z,6.45
2023-02-11T02:09:49.621Z,6.65
2023-02-11T02:12:18.101Z,6.43
2023-02-11T02:14:45.194Z,7.00
2023-02-11T02:17:24.964Z,6.78
2023-02-11T02:20:18.434Z,6.65
2023-02-11T02:23:28.489Z,6.43
2023-02-11T02:26:28.034Z,7.00
2023-02-11T02:29:23.449Z,6.53
2023-02-11T02:32:30.845Z,6.65
2023-02-11T02:35:09.436Z,6.57
2023-02-11T02:37:40.439Z,6.45
2023-02-11T02:40:12.694Z,6.40
2023-02-11T02:42:41.240Z,6.50
2023-02-11T02:45:10.819Z,6.80
2023-02-11T02:47:37.953Z,5.82
2023-02-11T02:50:08.156Z,6.30
2023-02-11T02:52:42.205Z,6.18
2023-02-11T02:55:17.572Z,6.72
2023-02-11T02:58:03.113Z,6.78
2023-02-11T03:00:36.951Z,6.40
2023-02-11T03:03:17.540Z,6.55
2023-02-11T03:05:53.371Z,6.38
2023-02-11T03:08:28.132Z,6.53
2023-02-11T03:10:56.561Z,6.57
2023-02-11T03:13:28.874Z,5.80
2023-02-11T03:15:58.413Z,6.40
2023-02-11T03:18:29.221Z,6.72
2023-02-11T03:21:00.470Z,6.20
2023-02-11T03:23:30.760Z,6.18
2023-02-11T03:26:02.857Z,6.43
2023-02-11T03:28:33.946Z,6.28
2023-02-11T03:31:09.682Z,5.47
2023-02-11T03:33:42.837Z,5.93
2023-02-11T03:36:14.856Z,6.38
2023-02-11T03:38:47.246Z,5.90
2023-02-11T03:41:17.588Z,6.60
2023-02-11T03:43:48.678Z,6.15
2023-02-11T03:46:19.502Z,5.85
2023-02-11T03:48:49.564Z,6.22
2023-02-11T03:51:20.638Z,5.97
2023-02-11T03:53:49.680Z,5.93
2023-02-11T03:56:21.179Z,6.05
2023-02-11T03:58:49.101Z,6.18
2023-02-11T04:01:16.345Z,5.50
2023-02-11T04:03:43.509Z,5.97
2023-02-11T04:06:10.709Z,5.95
2023-02-11T04:08:39.157Z,6.10
2023-02-11T04:11:06.281Z,6.07
2023-02-11T04:13:33.766Z,5.32
2023-02-11T04:16:00.904Z,5.97
2023-02-11T04:18:28.001Z,5.88
2023-02-11T04:20:55.280Z,5.93
2023-02-11T04:23:22.352Z,6.07
2023-02-11T04:25:51.069Z,6.07
2023-02-11T04:28:18.549Z,6.03
2023-02-11T04:30:45.693Z,5.97
2023-02-11T04:33:12.865Z,5.88
2023-02-11T04:35:40.115Z,6.53
2023-02-11T04:38:07.225Z,5.80
2023-02-11T04:40:34.352Z,6.00
2023-02-11T04:43:02.852Z,5.53
2023-02-11T04:45:29.961Z,5.97
2023-02-11T04:47:57.062Z,6.28
2023-02-11T04:50:24.384Z,6.00
2023-02-11T04:52:51.480Z,5.75
2023-02-11T04:55:18.824Z,5.88
2023-02-11T04:57:45.935Z,6.10
2023-02-11T05:00:15.968Z,5.75
2023-02-11T05:02:43.052Z,5.65
2023-02-11T05:05:10.169Z,5.95
2023-02-11T05:07:37.250Z,5.88
2023-02-11T05:10:04.587Z,5.20
2023-02-11T05:12:31.875Z,5.90
2023-02-11T05:14:58.983Z,5.65
2023-02-11T05:17:27.450Z,5.97
2023-02-11T05:19:54.990Z,6.57
2023-02-11T05:22:22.164Z,5.95
2023-02-11T05:24:50.186Z,5.50
2023-02-11T05:27:17.310Z,5.97
2023-02-11T05:29:44.409Z,5.90
2023-02-11T05:32:11.529Z,5.68
2023-02-11T05:34:39.998Z,5.78
2023-02-11T05:37:07.137Z,5.80
2023-02-11T05:39:34.249Z,5.40
2023-02-11T05:42:01.422Z,5.43
2023-02-11T05:44:28.511Z,6.20
2023-02-11T05:46:55.646Z,5.60
2023-02-11T05:49:22.817Z,5.97
2023-02-11T05:51:51.314Z,5.68
2023-02-11T05:54:18.453Z,5.90
2023-02-11T05:56:45.600Z,6.10
2023-02-11T05:59:14.548Z,5.95
2023-02-11T06:01:41.775Z,5.80
2023-02-11T06:04:08.902Z,5.70
2023-02-11T06:06:36.170Z,6.22
2023-02-11T06:09:04.945Z,9.82
2023-02-11T06:11:32.061Z,64.88
2023-02-11T06:13:59.135Z,999.90
2023-02-11T06:16:26.302Z,999.90
2023-02-11T06:18:53.430Z,474.20
2023-02-11T06:21:20.532Z,225.65
2023-02-11T06:23:47.758Z,252.20
2023-02-11T06:26:21.144Z,226.50
2023-02-11T06:28:48.497Z,211.07
2023-02-11T06:31:16.535Z,194.77
2023-02-11T06:33:43.985Z,190.05
2023-02-11T06:36:16.711Z,182.82
2023-02-11T06:38:43.949Z,174.73
2023-02-11T06:41:11.136Z,173.07
2023-02-11T06:43:40.290Z,165.48
2023-02-11T06:46:08.410Z,165.30
2023-02-11T06:48:36.409Z,161.13
2023-02-11T06:51:05.461Z,157.75
2023-02-11T06:53:35.309Z,150.93
2023-02-11T06:56:03.729Z,149.25
2023-02-11T06:58:30.824Z,148.60
2023-02-11T07:00:59.560Z,141.20
2023-02-11T07:03:26.656Z,139.43
2023-02-11T07:05:53.831Z,139.55
2023-02-11T07:08:20.996Z,135.90
2023-02-11T07:10:48.107Z,134.60
2023-02-11T07:13:15.210Z,130.57
2023-02-11T07:15:42.309Z,128.00
2023-02-11T07:18:13.023Z,128.50
2023-02-11T07:20:41.413Z,130.80
2023-02-11T07:23:08.554Z,127.72
2023-02-11T07:25:36.095Z,122.68
2023-02-11T07:28:03.639Z,119.00
2023-02-11T07:30:30.787Z,122.03
2023-02-11T07:32:57.892Z,120.38
2023-02-11T07:35:26.486Z,118.18
2023-02-11T07:37:53.665Z,119.55
2023-02-11T07:40:20.938Z,111.72
2023-02-11T07:42:48.026Z,105.38
2023-02-11T07:45:15.260Z,107.10
2023-02-11T07:47:42.371Z,102.03
2023-02-11T07:50:09.755Z,100.80
2023-02-11T07:52:38.226Z,93.22
2023-02-11T07:55:06.052Z,90.75
2023-02-11T07:57:33.098Z,90.63
2023-02-11T08:00:00.211Z,87.00
2023-02-11T08:02:27.621Z,84.90
2023-02-11T08:04:54.834Z,82.68
2023-02-11T08:07:22.053Z,81.78
2023-02-11T08:09:50.494Z,81.18
2023-02-11T08:12:17.585Z,79.55
2023-02-11T08:14:44.706Z,75.70
2023-02-11T08:17:11.813Z,72.85
2023-02-11T08:19:39.197Z,68.90
2023-02-11T08:22:06.574Z,61.90
2023-02-11T08:24:33.668Z,55.35
2023-02-11T08:27:02.123Z,51.25
2023-02-11T08:29:29.308Z,52.47
2023-02-11T08:31:56.478Z,49.97
2023-02-11T08:34:23.608Z,47.25
2023-02-11T08:36:50.994Z,45.67
2023-02-11T08:39:20.879Z,45.67
2023-02-11T08:41:50.101Z,44.92
2023-02-11T08:44:19.611Z,43.95
2023-02-11T08:46:47.439Z,42.25
2023-02-11T08:49:14.808Z,38.80
2023-02-11T08:51:42.652Z,35.10
2023-02-11T08:54:09.764Z,35.08
2023-02-11T08:56:37.984Z,31.88
2023-02-11T08:59:06.304Z,30.63
2023-02-11T09:01:35.135Z,29.10
2023-02-11T09:04:02.372Z,28.70
2023-02-11T09:06:29.906Z,27.65
2023-02-11T09:08:58.165Z,27.63
2023-02-11T09:11:29.292Z,26.30
2023-02-11T09:13:56.972Z,26.90
2023-02-11T09:16:26.115Z,25.27
2023-02-11T09:18:56.653Z,25.42
2023-02-11T09:21:23.828Z,25.35
2023-02-11T09:23:51.213Z,27.95
2023-02-11T09:26:20.707Z,24.10
2023-02-11T09:28:48.577Z,22.90
2023-02-11T09:31:17.967Z,24.00
2023-02-11T09:33:47.213Z,23.20
2023-02-11T09:36:17.732Z,21.42
2023-02-11T09:38:45.560Z,21.25
2023-02-11T09:41:35.360Z,20.83
2023-02-11T09:44:06.324Z,20.25
2023-02-11T09:46:39.489Z,19.35
2023-02-11T09:49:07.606Z,19.83
2023-02-11T09:51:43.781Z,20.33
2023-02-11T09:54:16.736Z,19.58
2023-02-11T09:56:43.846Z,18.63
2023-02-11T09:59:14.816Z,18.58
2023-02-11T10:01:47.256Z,18.63
2023-02-11T10:04:24.313Z,17.58
2023-02-11T10:06:55.645Z,17.65
2023-02-11T10:09:45.765Z,16.70
2023-02-11T10:12:29.844Z,15.73
2023-02-11T10:15:15.027Z,17.08
2023-02-11T10:17:51.728Z,16.15
2023-02-11T10:20:28.840Z,15.75
2023-02-11T10:22:59.825Z,14.98
2023-02-11T10:25:34.510Z,16.20
2023-02-11T10:28:10.152Z,15.70
2023-02-11T10:30:42.063Z,15.93
2023-02-11T10:33:19.936Z,14.20
2023-02-11T10:35:47.260Z,13.77
2023-02-11T10:38:15.701Z,14.18
2023-02-11T10:40:43.042Z,14.73
2023-02-11T10:43:13.535Z,13.88
2023-02-11T10:45:44.794Z,14.60
2023-02-11T10:48:38.332Z,13.57
2023-02-11T10:51:16.086Z,12.75
2023-02-11T10:53:45.398Z,12.52
2023-02-11T10:56:20.035Z,12.93
2023-02-11T10:58:55.978Z,13.77
2023-02-11T11:01:25.128Z,13.13
2023-02-11T11:03:52.989Z,14.07
2023-02-11T11:06:30.350Z,12.85
2023-02-11T11:08:59.069Z,13.18
2023-02-11T11:11:26.918Z,13.18
2023-02-11T11:13:57.192Z,12.32
2023-02-11T11:16:26.185Z,11.40
2023-02-11T11:19:13.866Z,12.25
2023-02-11T11:21:42.449Z,11.52
2023-02-11T11:24:18.403Z,11.32
2023-02-11T11:26:48.631Z,11.20
2023-02-11T11:29:18.959Z,11.38
2023-02-11T11:31:49.425Z,11.77
2023-02-11T11:34:26.875Z,10.88
2023-02-11T11:36:56.159Z,11.00
2023-02-11T11:39:27.613Z,10.95
2023-02-11T11:41:56.925Z,9.52
2023-02-11T11:44:28.303Z,10.57
2023-02-11T11:47:20.042Z,10.43
2023-02-11T11:49:55.436Z,10.00
2023-02-11T11:52:37.445Z,9.63
2023-02-11T11:55:15.986Z,9.13
2023-02-11T11:57:43.399Z,9.45
2023-02-11T12:00:19.015Z,9.93
2023-02-11T12:03:15.494Z,9.73
2023-02-11T12:05:52.109Z,9.18
2023-02-11T12:08:29.224Z,9.25
2023-02-11T12:11:12.170Z,8.57
2023-02-11T12:14:02.389Z,9.77
2023-02-11T12:16:43.453Z,8.38
2023-02-11T12:19:45.614Z,8.70
2023-02-11T12:22:26.435Z,8.38
2023-02-11T12:25:09.640Z,8.75
2023-02-11T12:27:49.550Z,8.70
2023-02-11T12:30:28.691Z,8.27
2023-02-11T12:33:04.582Z,8.07
2023-02-11T12:35:43.386Z,8.02
2023-02-11T12:38:22.795Z,8.00
2023-02-11T12:41:01.799Z,7.80
2023-02-11T12:43:36.954Z,8.05
2023-02-11T12:46:33.918Z,7.93
2023-02-11T12:49:33.489Z,8.45
2023-02-11T12:52:15.797Z,7.53
2023-02-11T12:54:48.673Z,7.32
2023-02-11T12:57:20.793Z,8.20
2023-02-11T12:59:57.224Z,7.30
2023-02-11T13:02:33.961Z,7.85
2023-02-11T13:05:08.255Z,7.53
2023-02-11T13:07:39.201Z,7.88
2023-02-11T13:10:22.382Z,7.05
2023-02-11T13:12:51.504Z,7.70
2023-02-11T13:15:19.932Z,7.35
2023-02-11T13:17:56.685Z,7.20
2023-02-11T13:20:39.049Z,7.22
2023-02-11T13:23:15.507Z,7.38
2023-02-11T13:25:50.442Z,7.07
2023-02-11T13:28:32.201Z,6.43
2023-02-11T13:31:01.223Z,6.78
2023-02-11T13:33:33.657Z,7.30
2023-02-11T13:36:21.727Z,7.30
2023-02-11T13:38:59.367Z,7.57
2023-02-11T13:41:33.284Z,6.55
2023-02-11T13:44:03.805Z,6.55
2023-02-11T13:46:49.996Z,6.55
2023-02-11T13:49:23.118Z,6.47
2023-02-11T13:51:51.473Z,6.32
2023-02-11T13:54:26.457Z,6.55
2023-02-11T13:57:33.749Z,6.30
2023-02-11T14:00:02.995Z,6.45
2023-02-11T14:02:33.839Z,6.32
2023-02-11T14:05:22.155Z,6.43
2023-02-11T14:08:14.873Z,6.25
2023-02-11T14:10:50.037Z,5.95
2023-02-11T14:13:23.969Z,5.72
2023-02-11T14:16:07.385Z,6.22
2023-02-11T14:19:03.801Z,5.72
2023-02-11T14:21:37.434Z,6.00
2023-02-11T14:24:47.212Z,6.75
2023-02-11T14:27:21.268Z,6.20
2023-02-11T14:30:06.758Z,5.75
2023-02-11T14:32:45.689Z,6.00
2023-02-11T14:35:23.494Z,6.20
2023-02-11T14:38:00.817Z,6.40
2023-02-11T14:40:31.690Z,5.63
2023-02-11T14:43:07.625Z,5.70
2023-02-11T14:45:36.915Z,6.07
2023-02-11T14:48:07.781Z,6.07
2023-02-11T14:50:41.695Z,6.47
2023-02-11T14:53:15.396Z,6.13
2023-02-11T14:55:45.500Z,5.43
2023-02-11T14:58:15.926Z,5.70
2023-02-11T15:00:52.240Z,5.45
2023-02-11T15:03:34.527Z,5.60
2023-02-11T15:06:06.023Z,6.20
2023-02-11T15:08:36.482Z,5.75
2023-02-11T15:11:10.682Z,5.78
2023-02-11T15:16:07.929Z,5.63
2023-02-11T15:18:38.882Z,5.70
2023-02-11T15:21:08.310Z,5.97
2023-02-11T15:23:35.850Z,5.40
2023-02-11T15:26:03.426Z,5.78
2023-02-11T15:28:33.029Z,6.10
2023-02-11T15:31:02.468Z,6.13
2023-02-11T15:33:30.579Z,6.10
2023-02-11T15:35:58.759Z,5.65
2023-02-11T15:38:27.424Z,5.68
2023-02-11T15:40:57.103Z,5.57
2023-02-11T15:43:24.960Z,5.57
2023-02-11T15:45:59.886Z,5.80
2023-02-11T15:48:35.102Z,5.38
2023-02-11T15:51:08.166Z,5.40
2023-02-11T15:53:40.226Z,5.28
2023-02-11T15:56:15.708Z,5.72
2023-02-11T15:58:45.337Z,5.65
2023-02-11T16:01:12.663Z,5.40
2023-02-11T16:03:41.804Z,5.32
2023-02-11T16:06:20.056Z,5.35
2023-02-11T16:08:59.556Z,5.30
2023-02-11T16:11:29.155Z,5.05
2023-02-11T16:13:56.709Z,5.45
2023-02-11T16:16:27.472Z,5.07
2023-02-11T16:19:04.817Z,5.50
2023-02-11T16:21:35.742Z,5.45
2023-02-11T16:24:06.621Z,5.78
2023-02-11T16:26:37.665Z,6.13
2023-02-11T16:29:07.893Z,5.63
2023-02-11T16:31:37.292Z,5.35
2023-02-11T16:34:13.298Z,5.60
2023-02-11T16:36:40.458Z,5.38
2023-02-11T16:39:09.170Z,5.75
2023-02-11T16:41:36.458Z,5.38
2023-02-11T16:44:03.627Z,5.78
2023-02-11T16:46:31.696Z,5.90
2023-02-11T16:49:05.893Z,5.60
2023-02-11T16:53:59.825Z,7.40
2023-02-11T16:56:29.002Z,7.07
2023-02-11T16:58:56.136Z,8.70
2023-02-11T17:01:23.433Z,11.77
2023-02-11T17:03:50.731Z,13.05
2023-02-11T17:06:17.830Z,15.35
2023-02-11T17:08:44.949Z,12.82
2023-02-11T17:11:12.062Z,11.98
2023-02-11T17:13:40.487Z,11.98
2023-02-11T17:16:15.917Z,16.02
2023-02-11T17:18:43.113Z,11.63
2023-02-11T17:21:10.238Z,9.63
2023-02-11T17:23:37.441Z,9.77
2023-02-11T17:26:05.345Z,8.40
2023-02-11T17:28:32.655Z,7.97
2023-02-11T17:31:01.380Z,7.63
2023-02-11T17:33:28.495Z,7.38
2023-02-11T17:35:55.662Z,7.20
2023-02-11T17:38:22.774Z,7.18
2023-02-11T17:40:57.338Z,6.88
2023-02-11T17:43:24.702Z,6.40
2023-02-11T17:45:52.169Z,6.45
2023-02-11T17:48:21.556Z,6.50
2023-02-11T17:50:48.780Z,6.18
2023-02-11T17:53:15.887Z,6.18
2023-02-11T17:55:43.037Z,6.10
2023-02-11T17:58:10.391Z,6.10
2023-02-11T18:00:37.494Z,5.70
2023-02-11T18:03:04.674Z,6.10
2023-02-11T18:05:35.976Z,5.93
2023-02-11T18:08:04.002Z,5.78
2023-02-11T18:10:31.615Z,5.90
2023-02-11T18:12:58.786Z,5.65
2023-02-11T18:15:25.882Z,6.28
2023-02-11T18:17:52.990Z,5.55
2023-02-11T18:20:20.157Z,5.60
2023-02-11T18:22:48.622Z,5.97
2023-02-11T18:25:16.665Z,5.20
2023-02-11T18:27:43.774Z,5.88
2023-02-11T18:30:15.606Z,5.90
2023-02-11T18:32:43.223Z,5.80
2023-02-11T18:35:12.654Z,5.93
2023-02-11T18:37:41.766Z,5.72
2023-02-11T18:40:12.178Z,5.57
2023-02-11T18:42:39.682Z,5.80
2023-02-11T18:45:07.856Z,5.70
2023-02-11T18:47:36.858Z,5.38
2023-02-11T18:50:04.084Z,5.60
2023-02-11T18:52:31.302Z,6.18
2023-02-11T18:54:58.428Z,5.72
2023-02-11T18:57:26.934Z,5.70
2023-02-11T18:59:54.192Z,6.22
2023-02-11T19:02:21.306Z,5.85
2023-02-11T19:04:48.506Z,5.75
2023-02-11T19:07:15.681Z,6.20
2023-02-11T19:09:43.120Z,5.68
2023-02-11T19:12:10.226Z,5.50
2023-02-11T19:14:38.694Z,5.63
2023-02-11T19:17:07.622Z,6.35
2023-02-11T19:19:35.925Z,5.90
2023-02-11T19:22:05.067Z,5.65
2023-02-11T19:24:32.755Z,5.57
2023-02-11T19:27:01.911Z,5.82
2023-02-11T19:29:30.307Z,5.47
2023-02-11T19:31:58.910Z,5.85
2023-02-11T19:34:26.062Z,5.50
2023-02-11T19:36:53.457Z,5.72
2023-02-11T19:39:20.923Z,5.93
2023-02-11T19:41:48.037Z,5.90
2023-02-11T19:44:15.146Z,5.50
2023-02-11T19:46:42.828Z,5.57
2023-02-11T19:49:14.144Z,5.53
2023-02-11T19:51:41.433Z,5.85
2023-02-11T19:54:08.554Z,5.57
2023-02-11T19:56:35.666Z,5.60
2023-02-11T19:59:03.466Z,5.63
2023-02-11T20:01:30.730Z,5.30
2023-02-11T20:03:57.882Z,5.70
2023-02-11T20:06:28.718Z,6.15
2023-02-11T20:08:58.593Z,5.85
2023-02-11T20:11:26.973Z,5.82
2023-02-11T20:13:54.205Z,5.72
2023-02-11T20:16:26.947Z,5.75
2023-02-11T20:19:01.060Z,5.50
2023-02-11T20:21:31.471Z,5.70
2023-02-11T20:23:59.619Z,5.90
2023-02-11T20:26:29.185Z,5.93
2023-02-11T20:28:57.704Z,5.80
2023-02-11T20:31:25.255Z,5.90
2023-02-11T20:33:52.416Z,6.03
2023-02-11T20:36:21.942Z,5.32
2023-02-11T20:38:51.348Z,5.70
2023-02-11T20:41:21.103Z,5.63
2023-02-11T20:43:50.720Z,5.90
2023-02-11T20:46:20.495Z,5.95
2023-02-11T20:48:47.779Z,5.97
2023-02-11T20:51:18.707Z,5.95
2023-02-11T20:53:47.923Z,5.85
2023-02-11T20:56:18.768Z,5.35
2023-02-11T20:58:46.088Z,5.55
2023-02-11T21:01:22.542Z,5.75
2023-02-11T21:03:52.120Z,5.97
2023-02-11T21:06:19.543Z,5.63
2023-02-11T21:08:47.308Z,5.95
2023-02-11T21:11:16.127Z,5.68
2023-02-11T21:13:43.552Z,6.60
2023-02-11T21:16:14.582Z,5.82
2023-02-11T21:18:42.117Z,5.82
2023-02-11T21:21:09.489Z,6.40
2023-02-11T21:23:36.666Z,5.78
2023-02-11T21:26:03.905Z,5.70
2023-02-11T21:28:32.572Z,5.90
2023-02-11T21:30:59.795Z,5.88
2023-02-11T21:33:28.156Z,5.88
2023-02-11T21:35:56.672Z,5.97
2023-02-11T21:38:24.366Z,6.28
2023-02-11T21:40:51.863Z,5.80
2023-02-11T21:43:19.210Z,5.68
2023-02-11T21:45:49.826Z,5.40
2023-02-11T21:48:18.120Z,5.40
2023-02-11T21:50:47.144Z,6.00
2023-02-11T21:53:15.068Z,5.38
2023-02-11T21:55:42.707Z,5.50
2023-02-11T21:58:12.556Z,5.45
2023-02-11T22:00:39.967Z,5.13
2023-02-11T22:03:08.469Z,5.60
2023-02-11T22:05:35.555Z,6.00
2023-02-11T22:08:02.674Z,6.15
2023-02-11T22:10:29.762Z,5.68
2023-02-11T22:12:56.879Z,5.97
2023-02-11T22:15:24.071Z,6.30
2023-02-11T22:17:51.169Z,5.70
2023-02-11T22:20:19.885Z,5.82
2023-02-11T22:22:46.985Z,5.90
2023-02-11T22:25:14.085Z,5.63
2023-02-11T22:27:41.238Z,6.03
2023-02-11T22:30:09.619Z,5.72
2023-02-11T22:32:36.756Z,5.95
2023-02-11T22:35:04.056Z,6.03
2023-02-11T22:37:32.553Z,5.93
2023-02-11T22:39:59.656Z,5.80
2023-02-11T22:42:26.793Z,6.35
2023-02-11T22:44:53.996Z,5.82
2023-02-11T22:47:21.145Z,6.18
2023-02-11T22:49:48.232Z,6.13
2023-02-11T22:52:15.365Z,5.90
2023-02-11T22:54:44.019Z,6.10
2023-02-11T22:57:11.111Z,6.05
2023-02-11T22:59:38.215Z,6.10
2023-02-11T23:02:05.402Z,5.88
2023-02-11T23:04:32.588Z,5.57
2023-02-11T23:06:59.694Z,5.95
2023-02-11T23:09:26.797Z,5.57
2023-02-11T23:11:55.374Z,6.13
2023-02-11T23:14:22.491Z,6.40
2023-02-11T23:16:50.287Z,5.60
2023-02-11T23:19:17.412Z,6.05
2023-02-11T23:21:44.531Z,6.22
2023-02-11T23:24:13.615Z,5.95
2023-02-11T23:26:41.661Z,5.68
2023-02-11T23:29:10.723Z,6.05
2023-02-11T23:31:39.634Z,5.93
2023-02-11T23:34:08.054Z,6.43
2023-02-11T23:36:36.229Z,5.72
2023-02-11T23:39:04.401Z,5.72
2023-02-11T23:41:31.654Z,5.32
2023-02-11T23:43:58.890Z,5.80
2023-02-11T23:46:27.824Z,5.68
2023-02-11T23:48:55.174Z,6.30
2023-02-11T23:51:22.739Z,6.22
2023-02-11T23:53:50.361Z,6.25
2023-02-11T23:56:20.771Z,6.32
2023-02-11T23:58:49.386Z,6.30
